Syracuse Hancock International Airport
KSYR : now visible

Airfield :











YOU CAN JOIN US ON...

 
LOGIN :

Register | Disclaimer

   EN    FR    IT 

 









Legend :    VFR   Marginal VFR   IFR   Intensive IFR   Very Intensive IFR
Visi :
Ceiling :
>= 8 km
>= 3000ft
5 to 8 km
1000 to 3000 ft
1500m to 5 km
500 to 1000 ft
800 to 1500m
200 to 500 ft
< 800m
< 200 ft
Symbols :   Thunderstorms  Fog  Heavy snow  Heavy precipitations  Wind > 20 kt







- Airport Elevation : 421 ft
- IATA code : SYR


KSYR - Syracuse Hancock International

CURRENT METAR :
  • 261454Z 26013KT 10SM FEW030 SCT200 SCT250 24/16 A2992 RMK AO2 SLP126 FEW V SCT T02440161 50001 $

EXPIRED METARs :
  • 261354Z 26014KT 10SM FEW028 FEW060 SCT150 SCT250 23/17 A2993 RMK AO2 SLP129 T02330167 $
  • 261254Z 26014G19KT 10SM FEW028 FEW050 SCT150 SCT250 23/17 A2992 RMK AO2 SLP128 T02280172 $

TAF KSYR
Valid from the 26 at 12:00 until the 27 at 12:00 UTC


261130Z 2612/2712 25010KT P6SM FEW025 SCT050
FM261600 28010G19KT P6SM BKN040
FM262200 31011KT P6SM FEW045
FM270100 29005KT P6SM SCT035
KZBW FIR / North America



MET'MAP, your aeronautical weather chart ! - Copyright ORBIFLY December 2007 - Disclaimer

ORBIFLY MET'MAP TEAM :

Programming & Development : Alexandra Zaïnal
Concept & Development : Baudouin d'Aumeries
Co-Development & Prog : Marc-Olivier Méhu
Technical & hardware support : Manuel Goepfert

Contact : metmap@orbifly.com




SOURCES & CREDITS :

   NOAA       Earth
Advisory